sensor_id;sensor_type;location;lat;lon;timestamp;pressure;altitude;pressure_sealevel;temperature;humidity
74270;BME280;62754;48.252;11.654;2022-12-29T00:00:18;95969.84;;;3.91;64.83
74270;BME280;62754;48.252;11.654;2022-12-29T00:02:44;95968.28;;;4.04;64.32
74270;BME280;62754;48.252;11.654;2022-12-29T00:05:09;95970.44;;;3.96;64.44
74270;BME280;62754;48.252;11.654;2022-12-29T00:07:35;95955.72;;;4.01;64.22
74270;BME280;62754;48.252;11.654;2022-12-29T00:10:01;95958.25;;;4.01;64.05
74270;BME280;62754;48.252;11.654;2022-12-29T00:12:35;95961.31;;;3.92;64.41
74270;BME280;62754;48.252;11.654;2022-12-29T00:15:00;95962.97;;;3.93;64.25
74270;BME280;62754;48.252;11.654;2022-12-29T00:17:26;95958.19;;;3.87;64.60
74270;BME280;62754;48.252;11.654;2022-12-29T00:19:52;95960.59;;;3.90;64.68
74270;BME280;62754;48.252;11.654;2022-12-29T00:22:18;95950.66;;;3.85;64.62
74270;BME280;62754;48.252;11.654;2022-12-29T00:24:44;95955.50;;;3.90;64.49
74270;BME280;62754;48.252;11.654;2022-12-29T00:27:16;95947.50;;;3.96;64.08
74270;BME280;62754;48.252;11.654;2022-12-29T00:29:41;95946.41;;;4.00;63.99
74270;BME280;62754;48.252;11.654;2022-12-29T00:32:09;95950.88;;;3.96;64.03
74270;BME280;62754;48.252;11.654;2022-12-29T00:34:35;95949.31;;;3.94;64.21
74270;BME280;62754;48.252;11.654;2022-12-29T00:37:01;95947.50;;;3.96;63.99
74270;BME280;62754;48.252;11.654;2022-12-29T00:39:26;95944.03;;;3.97;63.87
74270;BME280;62754;48.252;11.654;2022-12-29T00:41:52;95939.72;;;4.13;63.25
74270;BME280;62754;48.252;11.654;2022-12-29T00:44:18;95949.91;;;4.13;63.08
74270;BME280;62754;48.252;11.654;2022-12-29T00:46:44;95942.84;;;4.02;63.49
74270;BME280;62754;48.252;11.654;2022-12-29T00:49:12;95953.22;;;3.99;63.64
74270;BME280;62754;48.252;11.654;2022-12-29T00:51:38;95939.84;;;3.96;63.93
74270;BME280;62754;48.252;11.654;2022-12-29T00:54:04;95946.84;;;3.92;63.53
74270;BME280;62754;48.252;11.654;2022-12-29T00:56:30;95947.88;;;4.04;63.21
74270;BME280;62754;48.252;11.654;2022-12-29T00:59:00;95949.34;;;4.08;62.72
74270;BME280;62754;48.252;11.654;2022-12-29T01:01:25;95948.06;;;4.01;63.00
74270;BME280;62754;48.252;11.654;2022-12-29T01:03:52;95945.69;;;3.98;63.06
74270;BME280;62754;48.252;11.654;2022-12-29T01:06:17;95955.78;;;3.99;62.64
74270;BME280;62754;48.252;11.654;2022-12-29T01:08:43;95950.88;;;3.96;62.98
74270;BME280;62754;48.252;11.654;2022-12-29T01:11:11;95957.88;;;3.93;62.85
74270;BME280;62754;48.252;11.654;2022-12-29T01:13:38;95958.75;;;3.92;63.09
74270;BME280;62754;48.252;11.654;2022-12-29T01:16:05;95958.13;;;3.88;63.41
74270;BME280;62754;48.252;11.654;2022-12-29T01:18:31;95962.38;;;3.88;62.59
74270;BME280;62754;48.252;11.654;2022-12-29T01:21:01;95954.66;;;3.89;62.60
74270;BME280;62754;48.252;11.654;2022-12-29T01:23:28;95947.50;;;3.96;62.44
74270;BME280;62754;48.252;11.654;2022-12-29T01:25:54;95953.69;;;4.06;61.83
74270;BME280;62754;48.252;11.654;2022-12-29T01:28:20;95957.00;;;4.08;61.75
74270;BME280;62754;48.252;11.654;2022-12-29T01:30:55;95956.44;;;4.03;61.48
74270;BME280;62754;48.252;11.654;2022-12-29T01:33:21;95951.97;;;4.06;61.38
74270;BME280;62754;48.252;11.654;2022-12-29T01:35:47;95946.88;;;4.06;61.42
74270;BME280;62754;48.252;11.654;2022-12-29T01:38:12;95955.00;;;4.13;61.35
74270;BME280;62754;48.252;11.654;2022-12-29T01:40:46;95957.13;;;4.20;60.44
74270;BME280;62754;48.252;11.654;2022-12-29T01:43:13;95956.31;;;4.20;60.72
74270;BME280;62754;48.252;11.654;2022-12-29T01:45:51;95944.25;;;4.08;60.96
74270;BME280;62754;48.252;11.654;2022-12-29T01:48:19;95948.97;;;4.14;60.58
74270;BME280;62754;48.252;11.654;2022-12-29T01:50:54;95951.28;;;4.18;60.49
74270;BME280;62754;48.252;11.654;2022-12-29T01:53:27;95956.38;;;4.18;60.44
74270;BME280;62754;48.252;11.654;2022-12-29T01:55:58;95950.94;;;4.24;60.37
74270;BME280;62754;48.252;11.654;2022-12-29T01:58:29;95946.75;;;4.23;60.31
74270;BME280;62754;48.252;11.654;2022-12-29T02:00:56;95952.13;;;4.33;59.85
74270;BME280;62754;48.252;11.654;2022-12-29T02:03:24;95942.84;;;4.32;60.07
74270;BME280;62754;48.252;11.654;2022-12-29T02:08:58;95941.91;;;4.33;59.89
74270;BME280;62754;48.252;11.654;2022-12-29T02:11:25;95934.56;;;4.28;60.13
74270;BME280;62754;48.252;11.654;2022-12-29T02:13:52;95929.38;;;4.44;59.73
74270;BME280;62754;48.252;11.654;2022-12-29T02:16:41;95934.28;;;4.33;60.07
74270;BME280;62754;48.252;11.654;2022-12-29T02:28:21;95924.09;;;4.61;58.55
74270;BME280;62754;48.252;11.654;2022-12-29T02:36:51;95923.47;;;4.86;57.30
74270;BME280;62754;48.252;11.654;2022-12-29T02:39:38;95919.47;;;4.82;57.38
74270;BME280;62754;48.252;11.654;2022-12-29T02:47:00;95926.38;;;4.94;56.41
74270;BME280;62754;48.252;11.654;2022-12-29T02:49:42;95922.16;;;5.07;55.67
74270;BME280;62754;48.252;11.654;2022-12-29T02:52:26;95922.69;;;5.12;55.40
74270;BME280;62754;48.252;11.654;2022-12-29T02:54:54;95917.06;;;5.07;55.67
74270;BME280;62754;48.252;11.654;2022-12-29T02:59:49;95912.84;;;5.06;55.17
74270;BME280;62754;48.252;11.654;2022-12-29T03:02:30;95908.28;;;5.11;54.95
74270;BME280;62754;48.252;11.654;2022-12-29T03:07:55;95919.72;;;5.06;55.38
74270;BME280;62754;48.252;11.654;2022-12-29T03:13:27;95900.16;;;5.19;54.45
74270;BME280;62754;48.252;11.654;2022-12-29T03:18:41;95896.94;;;5.29;54.11
74270;BME280;62754;48.252;11.654;2022-12-29T03:21:32;95895.75;;;5.35;53.65
74270;BME280;62754;48.252;11.654;2022-12-29T03:23:59;95889.41;;;5.41;53.85
74270;BME280;62754;48.252;11.654;2022-12-29T03:26:25;95887.41;;;5.46;53.34
74270;BME280;62754;48.252;11.654;2022-12-29T03:28:53;95884.56;;;5.50;53.48
74270;BME280;62754;48.252;11.654;2022-12-29T03:31:20;95881.72;;;5.55;53.54
74270;BME280;62754;48.252;11.654;2022-12-29T03:33:48;95883.03;;;5.60;53.07
74270;BME280;62754;48.252;11.654;2022-12-29T03:36:27;95888.09;;;5.74;52.80
74270;BME280;62754;48.252;11.654;2022-12-29T03:39:02;95882.84;;;5.90;51.89
74270;BME280;62754;48.252;11.654;2022-12-29T03:41:32;95882.75;;;5.92;51.80
74270;BME280;62754;48.252;11.654;2022-12-29T03:43:59;95889.91;;;5.99;51.57
74270;BME280;62754;48.252;11.654;2022-12-29T03:46:24;95883.28;;;5.97;51.87
74270;BME280;62754;48.252;11.654;2022-12-29T03:48:50;95886.97;;;6.05;51.37
74270;BME280;62754;48.252;11.654;2022-12-29T03:51:16;95882.97;;;6.01;51.82
74270;BME280;62754;48.252;11.654;2022-12-29T03:53:41;95878.69;;;6.14;51.50
74270;BME280;62754;48.252;11.654;2022-12-29T03:56:07;95885.72;;;6.11;51.72
74270;BME280;62754;48.252;11.654;2022-12-29T03:58:33;95881.56;;;6.10;51.47
74270;BME280;62754;48.252;11.654;2022-12-29T04:00:59;95888.53;;;6.20;50.84
74270;BME280;62754;48.252;11.654;2022-12-29T04:03:24;95887.09;;;6.16;50.88
74270;BME280;62754;48.252;11.654;2022-12-29T04:05:50;95880.03;;;6.20;50.99
74270;BME280;62754;48.252;11.654;2022-12-29T04:08:16;95885.53;;;6.27;50.88
74270;BME280;62754;48.252;11.654;2022-12-29T04:10:42;95881.16;;;6.29;50.83
74270;BME280;62754;48.252;11.654;2022-12-29T04:13:07;95891.72;;;6.37;50.80
74270;BME280;62754;48.252;11.654;2022-12-29T04:15:33;95881.03;;;6.30;50.53
74270;BME280;62754;48.252;11.654;2022-12-29T04:17:59;95873.38;;;6.30;50.84
74270;BME280;62754;48.252;11.654;2022-12-29T04:20:25;95884.13;;;6.48;50.16
74270;BME280;62754;48.252;11.654;2022-12-29T04:23:00;95886.78;;;6.46;49.63
74270;BME280;62754;48.252;11.654;2022-12-29T04:25:26;95877.88;;;6.39;50.08
74270;BME280;62754;48.252;11.654;2022-12-29T04:27:52;95885.75;;;6.61;49.57
74270;BME280;62754;48.252;11.654;2022-12-29T04:30:18;95878.66;;;6.65;49.55
74270;BME280;62754;48.252;11.654;2022-12-29T04:32:44;95874.50;;;6.64;49.06
74270;BME280;62754;48.252;11.654;2022-12-29T04:35:10;95870.16;;;6.64;49.02
74270;BME280;62754;48.252;11.654;2022-12-29T04:37:35;95862.78;;;6.72;48.49
74270;BME280;62754;48.252;11.654;2022-12-29T04:40:01;95867.50;;;6.79;48.48
74270;BME280;62754;48.252;11.654;2022-12-29T04:42:27;95872.63;;;6.79;48.57
74270;BME280;62754;48.252;11.654;2022-12-29T04:44:53;95866.47;;;6.81;48.16
74270;BME280;62754;48.252;11.654;2022-12-29T04:47:18;95869.94;;;6.80;48.60
74270;BME280;62754;48.252;11.654;2022-12-29T04:49:44;95857.66;;;6.85;48.16
74270;BME280;62754;48.252;11.654;2022-12-29T04:52:10;95861.72;;;6.88;47.93
74270;BME280;62754;48.252;11.654;2022-12-29T04:54:36;95859.00;;;6.91;47.95
74270;BME280;62754;48.252;11.654;2022-12-29T04:57:02;95861.19;;;6.95;47.44
74270;BME280;62754;48.252;11.654;2022-12-29T04:59:27;95862.31;;;7.04;47.20
74270;BME280;62754;48.252;11.654;2022-12-29T05:01:53;95862.97;;;6.95;47.75
74270;BME280;62754;48.252;11.654;2022-12-29T05:04:19;95869.91;;;7.05;47.41
74270;BME280;62754;48.252;11.654;2022-12-29T05:06:45;95867.44;;;7.04;47.34
74270;BME280;62754;48.252;11.654;2022-12-29T05:09:11;95870.72;;;7.06;47.32
74270;BME280;62754;48.252;11.654;2022-12-29T05:11:36;95876.50;;;7.21;47.00
74270;BME280;62754;48.252;11.654;2022-12-29T05:14:02;95874.19;;;7.17;47.36
74270;BME280;62754;48.252;11.654;2022-12-29T05:16:28;95867.75;;;7.36;46.53
74270;BME280;62754;48.252;11.654;2022-12-29T05:18:53;95873.72;;;7.24;46.93
74270;BME280;62754;48.252;11.654;2022-12-29T05:21:19;95876.56;;;7.32;47.23
74270;BME280;62754;48.252;11.654;2022-12-29T05:23:45;95876.47;;;7.33;47.13
74270;BME280;62754;48.252;11.654;2022-12-29T05:26:11;95883.56;;;7.30;47.23
74270;BME280;62754;48.252;11.654;2022-12-29T05:28:36;95880.81;;;7.20;47.33
74270;BME280;62754;48.252;11.654;2022-12-29T05:31:02;95880.56;;;7.36;46.69
74270;BME280;62754;48.252;11.654;2022-12-29T05:33:28;95879.09;;;7.44;46.70
74270;BME280;62754;48.252;11.654;2022-12-29T05:35:54;95882.69;;;7.42;46.49
74270;BME280;62754;48.252;11.654;2022-12-29T05:38:19;95879.31;;;7.41;46.47
74270;BME280;62754;48.252;11.654;2022-12-29T05:40:45;95875.94;;;7.41;46.87
74270;BME280;62754;48.252;11.654;2022-12-29T05:43:11;95872.56;;;7.40;46.64
74270;BME280;62754;48.252;11.654;2022-12-29T05:45:37;95869.84;;;7.42;46.61
74270;BME280;62754;48.252;11.654;2022-12-29T05:48:03;95874.50;;;7.37;46.86
74270;BME280;62754;48.252;11.654;2022-12-29T05:50:28;95868.13;;;7.42;46.53
74270;BME280;62754;48.252;11.654;2022-12-29T05:52:54;95872.56;;;7.40;46.49
74270;BME280;62754;48.252;11.654;2022-12-29T05:55:20;95870.41;;;7.34;46.77
74270;BME280;62754;48.252;11.654;2022-12-29T05:57:46;95863.94;;;7.41;46.45
74270;BME280;62754;48.252;11.654;2022-12-29T06:00:12;95866.50;;;7.41;46.54
74270;BME280;62754;48.252;11.654;2022-12-29T06:02:38;95872.56;;;7.40;46.50
74270;BME280;62754;48.252;11.654;2022-12-29T06:05:04;95879.19;;;7.43;46.86
74270;BME280;62754;48.252;11.654;2022-12-29T06:07:30;95882.47;;;7.45;46.34
74270;BME280;62754;48.252;11.654;2022-12-29T06:09:55;95870.09;;;7.39;46.49
74270;BME280;62754;48.252;11.654;2022-12-29T06:12:21;95874.06;;;7.43;46.80
74270;BME280;62754;48.252;11.654;2022-12-29T06:14:47;95865.56;;;7.42;46.79
74270;BME280;62754;48.252;11.654;2022-12-29T06:17:13;95873.38;;;7.41;46.20
74270;BME280;62754;48.252;11.654;2022-12-29T06:19:38;95876.19;;;7.25;47.06
74270;BME280;62754;48.252;11.654;2022-12-29T06:22:04;95869.94;;;7.29;46.49
74270;BME280;62754;48.252;11.654;2022-12-29T06:24:30;95862.13;;;7.31;46.92
74270;BME280;62754;48.252;11.654;2022-12-29T06:26:56;95863.84;;;7.30;46.94
74270;BME280;62754;48.252;11.654;2022-12-29T06:29:21;95866.66;;;7.27;47.38
74270;BME280;62754;48.252;11.654;2022-12-29T06:31:47;95872.28;;;7.32;46.82
74270;BME280;62754;48.252;11.654;2022-12-29T06:34:13;95870.59;;;7.44;47.05
74270;BME280;62754;48.252;11.654;2022-12-29T06:36:39;95865.22;;;7.47;46.81
74270;BME280;62754;48.252;11.654;2022-12-29T06:39:05;95864.88;;;7.40;47.47
74270;BME280;62754;48.252;11.654;2022-12-29T06:41:31;95854.56;;;7.29;47.15
74270;BME280;62754;48.252;11.654;2022-12-29T06:43:57;95866.41;;;7.30;47.17
74270;BME280;62754;48.252;11.654;2022-12-29T06:46:23;95867.47;;;7.28;47.01
74270;BME280;62754;48.252;11.654;2022-12-29T06:48:48;95869.16;;;7.40;46.79
74270;BME280;62754;48.252;11.654;2022-12-29T06:51:14;95867.47;;;7.28;46.88
74270;BME280;62754;48.252;11.654;2022-12-29T06:53:40;95867.78;;;7.23;47.01
74270;BME280;62754;48.252;11.654;2022-12-29T06:56:06;95871.16;;;7.24;47.35
74270;BME280;62754;48.252;11.654;2022-12-29T06:58:32;95872.91;;;7.23;47.13
74270;BME280;62754;48.252;11.654;2022-12-29T07:00:58;95872.59;;;7.28;47.32
74270;BME280;62754;48.252;11.654;2022-12-29T07:03:23;95882.84;;;7.28;47.02
74270;BME280;62754;48.252;11.654;2022-12-29T07:05:49;95874.56;;;7.24;47.52
74270;BME280;62754;48.252;11.654;2022-12-29T07:08:15;95884.53;;;7.16;47.40
74270;BME280;62754;48.252;11.654;2022-12-29T07:10:41;95883.38;;;7.20;47.11
74270;BME280;62754;48.252;11.654;2022-12-29T07:13:07;95890.25;;;7.19;47.29
74270;BME280;62754;48.252;11.654;2022-12-29T07:15:33;95889.13;;;7.11;47.32
74270;BME280;62754;48.252;11.654;2022-12-29T07:17:59;95898.59;;;7.10;47.42
74270;BME280;62754;48.252;11.654;2022-12-29T07:20:25;95900.63;;;7.18;47.36
74270;BME280;62754;48.252;11.654;2022-12-29T07:22:50;95903.81;;;7.09;47.63
74270;BME280;62754;48.252;11.654;2022-12-29T07:25:16;95899.19;;;7.14;47.89
74270;BME280;62754;48.252;11.654;2022-12-29T07:27:42;95896.50;;;7.15;47.40
74270;BME280;62754;48.252;11.654;2022-12-29T07:30:08;95904.22;;;7.39;46.76
74270;BME280;62754;48.252;11.654;2022-12-29T07:32:35;95904.50;;;7.47;46.63
74270;BME280;62754;48.252;11.654;2022-12-29T07:35:01;95914.22;;;7.55;46.43
74270;BME280;62754;48.252;11.654;2022-12-29T07:37:26;95905.00;;;7.52;46.62
74270;BME280;62754;48.252;11.654;2022-12-29T07:39:53;95916.59;;;7.45;46.72
74270;BME280;62754;48.252;11.654;2022-12-29T07:42:18;95913.41;;;7.54;46.50
74270;BME280;62754;48.252;11.654;2022-12-29T07:44:44;95912.41;;;7.44;46.53
74270;BME280;62754;48.252;11.654;2022-12-29T07:47:10;95911.16;;;7.50;46.95
74270;BME280;62754;48.252;11.654;2022-12-29T07:49:36;95919.97;;;7.46;46.94
74270;BME280;62754;48.252;11.654;2022-12-29T07:52:01;95916.81;;;7.42;46.87
74270;BME280;62754;48.252;11.654;2022-12-29T07:54:27;95919.06;;;7.47;47.55
74270;BME280;62754;48.252;11.654;2022-12-29T07:56:53;95910.97;;;7.53;47.23
74270;BME280;62754;48.252;11.654;2022-12-29T07:59:19;95910.72;;;7.56;46.97
74270;BME280;62754;48.252;11.654;2022-12-29T08:01:45;95912.69;;;7.52;47.61
74270;BME280;62754;48.252;11.654;2022-12-29T08:04:11;95906.03;;;7.74;46.98
74270;BME280;62754;48.252;11.654;2022-12-29T08:06:36;95916.78;;;7.79;46.68
74270;BME280;62754;48.252;11.654;2022-12-29T08:09:02;95910.38;;;7.84;46.29
74270;BME280;62754;48.252;11.654;2022-12-29T08:11:28;95902.34;;;7.89;45.87
74270;BME280;62754;48.252;11.654;2022-12-29T08:13:54;95905.41;;;7.94;45.54
74270;BME280;62754;48.252;11.654;2022-12-29T08:16:20;95914.03;;;7.93;46.17
74270;BME280;62754;48.252;11.654;2022-12-29T08:18:45;95913.00;;;7.95;45.22
74270;BME280;62754;48.252;11.654;2022-12-29T08:21:11;95919.00;;;8.07;45.74
74270;BME280;62754;48.252;11.654;2022-12-29T08:23:37;95917.16;;;8.20;45.36
74270;BME280;62754;48.252;11.654;2022-12-29T08:26:04;95916.22;;;8.21;45.24
74270;BME280;62754;48.252;11.654;2022-12-29T08:28:30;95917.34;;;8.30;45.06
74270;BME280;62754;48.252;11.654;2022-12-29T08:30:57;95915.03;;;8.38;44.29
74270;BME280;62754;48.252;11.654;2022-12-29T08:33:23;95909.44;;;8.55;44.15
74270;BME280;62754;48.252;11.654;2022-12-29T08:35:49;95905.59;;;8.60;43.66
74270;BME280;62754;48.252;11.654;2022-12-29T08:38:14;95907.25;;;8.73;43.85
74270;BME280;62754;48.252;11.654;2022-12-29T08:40:40;95902.56;;;8.89;43.30
74270;BME280;62754;48.252;11.654;2022-12-29T08:43:06;95907.13;;;8.96;42.83
74270;BME280;62754;48.252;11.654;2022-12-29T08:45:32;95913.66;;;8.89;42.86
74270;BME280;62754;48.252;11.654;2022-12-29T08:47:58;95909.34;;;9.01;43.11
74270;BME280;62754;48.252;11.654;2022-12-29T08:50:24;95922.06;;;9.14;42.51
74270;BME280;62754;48.252;11.654;2022-12-29T08:52:50;95925.47;;;9.14;42.32
74270;BME280;62754;48.252;11.654;2022-12-29T08:55:16;95923.13;;;9.11;42.39
74270;BME280;62754;48.252;11.654;2022-12-29T08:57:41;95917.28;;;9.09;43.19
74270;BME280;62754;48.252;11.654;2022-12-29T09:00:08;95917.97;;;9.00;43.37
74270;BME280;62754;48.252;11.654;2022-12-29T09:02:34;95921.84;;;9.05;42.80
74270;BME280;62754;48.252;11.654;2022-12-29T09:04:59;95919.38;;;9.04;42.86
74270;BME280;62754;48.252;11.654;2022-12-29T09:07:25;95921.75;;;9.07;42.81
74270;BME280;62754;48.252;11.654;2022-12-29T09:09:51;95928.84;;;9.26;42.45
74270;BME280;62754;48.252;11.654;2022-12-29T09:12:17;95927.06;;;9.37;42.79
74270;BME280;62754;48.252;11.654;2022-12-29T09:14:43;95918.03;;;9.65;41.59
74270;BME280;62754;48.252;11.654;2022-12-29T09:17:12;95927.13;;;10.01;41.02
74270;BME280;62754;48.252;11.654;2022-12-29T09:22:59;95933.25;;;10.62;39.33
74270;BME280;62754;48.252;11.654;2022-12-29T09:25:43;95925.25;;;11.16;38.50
74270;BME280;62754;48.252;11.654;2022-12-29T09:30:44;95929.47;;;11.17;38.32
74270;BME280;62754;48.252;11.654;2022-12-29T09:33:19;95923.72;;;11.44;37.70
74270;BME280;62754;48.252;11.654;2022-12-29T09:35:50;95916.00;;;11.54;37.25
74270;BME280;62754;48.252;11.654;2022-12-29T09:38:17;95918.25;;;11.87;37.19
74270;BME280;62754;48.252;11.654;2022-12-29T09:40:46;95906.16;;;12.26;36.49
74270;BME280;62754;48.252;11.654;2022-12-29T09:46:27;95898.56;;;12.71;35.04
74270;BME280;62754;48.252;11.654;2022-12-29T09:51:55;95912.00;;;12.47;35.40
74270;BME280;62754;48.252;11.654;2022-12-29T09:57:16;95914.59;;;11.99;36.04
74270;BME280;62754;48.252;11.654;2022-12-29T09:59:45;95918.19;;;11.68;37.06
74270;BME280;62754;48.252;11.654;2022-12-29T10:02:23;95924.44;;;11.65;36.24
74270;BME280;62754;48.252;11.654;2022-12-29T10:04:52;95913.78;;;11.39;37.31
74270;BME280;62754;48.252;11.654;2022-12-29T10:07:30;95913.00;;;11.48;37.45
74270;BME280;62754;48.252;11.654;2022-12-29T10:10:07;95914.91;;;11.46;37.07
74270;BME280;62754;48.252;11.654;2022-12-29T10:16:01;95919.94;;;11.08;37.25
74270;BME280;62754;48.252;11.654;2022-12-29T10:24:02;95928.78;;;11.15;37.79
74270;BME280;62754;48.252;11.654;2022-12-29T10:26:42;95919.22;;;10.96;37.91
74270;BME280;62754;48.252;11.654;2022-12-29T10:29:32;95925.13;;;11.18;38.06
74270;BME280;62754;48.252;11.654;2022-12-29T10:32:00;95927.59;;;11.19;37.77
74270;BME280;62754;48.252;11.654;2022-12-29T10:34:34;95929.50;;;11.27;38.32
74270;BME280;62754;48.252;11.654;2022-12-29T10:37:21;95927.16;;;11.14;37.33
74270;BME280;62754;48.252;11.654;2022-12-29T10:39:51;95916.13;;;11.12;37.68
74270;BME280;62754;48.252;11.654;2022-12-29T10:44:56;95904.16;;;11.41;37.31
74270;BME280;62754;48.252;11.654;2022-12-29T10:47:29;95905.00;;;11.71;36.88
74270;BME280;62754;48.252;11.654;2022-12-29T10:49:56;95899.50;;;11.85;36.47
74270;BME280;62754;48.252;11.654;2022-12-29T10:52:22;95887.00;;;12.09;36.26
74270;BME280;62754;48.252;11.654;2022-12-29T10:57:36;95887.97;;;12.08;36.18
74270;BME280;62754;48.252;11.654;2022-12-29T11:00:14;95874.91;;;12.00;36.60
74270;BME280;62754;48.252;11.654;2022-12-29T11:08:01;95875.59;;;12.12;35.16
74270;BME280;62754;48.252;11.654;2022-12-29T11:10:45;95874.41;;;12.53;33.90
74270;BME280;62754;48.252;11.654;2022-12-29T11:13:17;95880.28;;;12.55;34.57
74270;BME280;62754;48.252;11.654;2022-12-29T11:15:45;95877.94;;;12.61;34.59
74270;BME280;62754;48.252;11.654;2022-12-29T11:20:56;95859.34;;;13.22;33.50
74270;BME280;62754;48.252;11.654;2022-12-29T11:23:35;95868.19;;;13.47;32.87
74270;BME280;62754;48.252;11.654;2022-12-29T11:26:21;95855.47;;;14.06;32.44
74270;BME280;62754;48.252;11.654;2022-12-29T11:31:47;95857.28;;;13.70;32.77
74270;BME280;62754;48.252;11.654;2022-12-29T11:34:24;95856.94;;;13.38;33.09
74270;BME280;62754;48.252;11.654;2022-12-29T11:36:52;95856.19;;;13.28;32.88
74270;BME280;62754;48.252;11.654;2022-12-29T11:42:06;95846.63;;;13.01;33.25
74270;BME280;62754;48.252;11.654;2022-12-29T11:44:42;95846.09;;;12.98;33.17
74270;BME280;62754;48.252;11.654;2022-12-29T11:47:20;95848.38;;;13.38;32.95
74270;BME280;62754;48.252;11.654;2022-12-29T11:49:54;95850.13;;;13.37;33.30
74270;BME280;62754;48.252;11.654;2022-12-29T11:52:26;95849.47;;;13.35;33.67
74270;BME280;62754;48.252;11.654;2022-12-29T11:54:54;95842.94;;;13.04;34.18
74270;BME280;62754;48.252;11.654;2022-12-29T11:57:21;95840.69;;;13.46;33.70
74270;BME280;62754;48.252;11.654;2022-12-29T11:59:51;95842.84;;;13.86;32.42
74270;BME280;62754;48.252;11.654;2022-12-29T12:02:26;95841.66;;;13.98;33.29
74270;BME280;62754;48.252;11.654;2022-12-29T12:05:16;95845.25;;;14.22;32.76
74270;BME280;62754;48.252;11.654;2022-12-29T12:07:47;95838.38;;;14.13;33.26
74270;BME280;62754;48.252;11.654;2022-12-29T12:10:27;95831.78;;;14.19;33.67
74270;BME280;62754;48.252;11.654;2022-12-29T12:13:21;95827.72;;;14.68;32.39
74270;BME280;62754;48.252;11.654;2022-12-29T12:15:54;95822.94;;;14.81;32.27
74270;BME280;62754;48.252;11.654;2022-12-29T12:18:37;95823.81;;;15.40;31.87
74270;BME280;62754;48.252;11.654;2022-12-29T12:21:18;95819.56;;;15.31;31.96
74270;BME280;62754;48.252;11.654;2022-12-29T12:24:23;95811.78;;;15.39;32.76
74270;BME280;62754;48.252;11.654;2022-12-29T12:27:01;95822.81;;;15.33;31.37
74270;BME280;62754;48.252;11.654;2022-12-29T12:29:36;95790.91;;;15.48;31.24
74270;BME280;62754;48.252;11.654;2022-12-29T12:32:11;95795.00;;;15.67;31.07
74270;BME280;62754;48.252;11.654;2022-12-29T12:34:43;95795.16;;;15.98;30.18
74270;BME280;62754;48.252;11.654;2022-12-29T12:40:22;95801.16;;;15.66;30.73
74270;BME280;62754;48.252;11.654;2022-12-29T12:48:22;95791.91;;;16.12;31.09
74270;BME280;62754;48.252;11.654;2022-12-29T12:54:06;95797.78;;;15.15;33.38
74270;BME280;62754;48.252;11.654;2022-12-29T12:56:41;95800.66;;;15.04;34.01
74270;BME280;62754;48.252;11.654;2022-12-29T12:59:15;95806.88;;;14.44;35.14
74270;BME280;62754;48.252;11.654;2022-12-29T13:02:01;95799.06;;;14.36;35.56
74270;BME280;62754;48.252;11.654;2022-12-29T13:04:43;95795.25;;;14.48;35.79
74270;BME280;62754;48.252;11.654;2022-12-29T13:20:56;95794.34;;;13.70;38.49
74270;BME280;62754;48.252;11.654;2022-12-29T13:26:17;95796.69;;;13.46;39.70
74270;BME280;62754;48.252;11.654;2022-12-29T13:36:54;95791.13;;;13.23;40.89
74270;BME280;62754;48.252;11.654;2022-12-29T13:39:30;95790.53;;;13.11;41.38
74270;BME280;62754;48.252;11.654;2022-12-29T13:41:59;95794.53;;;12.96;41.62
74270;BME280;62754;48.252;11.654;2022-12-29T13:44:40;95796.78;;;12.81;41.85
74270;BME280;62754;48.252;11.654;2022-12-29T13:47:31;95795.38;;;12.87;42.54
74270;BME280;62754;48.252;11.654;2022-12-29T13:50:00;95795.88;;;12.73;42.48
74270;BME280;62754;48.252;11.654;2022-12-29T13:52:31;95799.63;;;12.78;42.76
74270;BME280;62754;48.252;11.654;2022-12-29T13:55:26;95802.28;;;12.69;43.47
74270;BME280;62754;48.252;11.654;2022-12-29T14:00:54;95805.69;;;12.69;43.64
74270;BME280;62754;48.252;11.654;2022-12-29T14:08:38;95800.44;;;12.52;45.39
74270;BME280;62754;48.252;11.654;2022-12-29T14:11:10;95802.34;;;12.50;45.04
74270;BME280;62754;48.252;11.654;2022-12-29T14:13:41;95806.84;;;12.48;45.33
74270;BME280;62754;48.252;11.654;2022-12-29T14:16:21;95805.66;;;12.42;45.46
74270;BME280;62754;48.252;11.654;2022-12-29T14:18:49;95804.28;;;12.38;45.89
74270;BME280;62754;48.252;11.654;2022-12-29T14:21:23;95804.28;;;12.38;45.94
74270;BME280;62754;48.252;11.654;2022-12-29T14:23:51;95794.78;;;12.29;46.12
74270;BME280;62754;48.252;11.654;2022-12-29T14:28:48;95804.75;;;12.14;46.99
74270;BME280;62754;48.252;11.654;2022-12-29T14:33:41;95801.41;;;11.85;47.65
74270;BME280;62754;48.252;11.654;2022-12-29T14:36:24;95811.06;;;11.92;47.67
74270;BME280;62754;48.252;11.654;2022-12-29T14:38:50;95802.50;;;11.73;48.28
74270;BME280;62754;48.252;11.654;2022-12-29T14:44:00;95812.00;;;11.72;48.12
74270;BME280;62754;48.252;11.654;2022-12-29T14:46:44;95814.84;;;11.69;48.21
74270;BME280;62754;48.252;11.654;2022-12-29T14:49:17;95807.66;;;11.73;48.25
74270;BME280;62754;48.252;11.654;2022-12-29T14:51:45;95821.63;;;11.70;48.61
74270;BME280;62754;48.252;11.654;2022-12-29T14:54:34;95818.94;;;11.72;48.72
74270;BME280;62754;48.252;11.654;2022-12-29T14:57:09;95815.66;;;11.70;49.05
74270;BME280;62754;48.252;11.654;2022-12-29T14:59:39;95820.81;;;11.60;48.84
74270;BME280;62754;48.252;11.654;2022-12-29T15:02:15;95814.41;;;11.55;48.91
74270;BME280;62754;48.252;11.654;2022-12-29T15:04:42;95822.16;;;11.55;49.35
74270;BME280;62754;48.252;11.654;2022-12-29T15:07:10;95830.31;;;11.60;48.95
74270;BME280;62754;48.252;11.654;2022-12-29T15:09:40;95833.44;;;11.63;48.86
74270;BME280;62754;48.252;11.654;2022-12-29T15:14:56;95825.00;;;11.42;49.38
74270;BME280;62754;48.252;11.654;2022-12-29T15:17:28;95827.59;;;11.42;50.00
74270;BME280;62754;48.252;11.654;2022-12-29T15:19:55;95821.19;;;11.27;49.97